sensor_id;sensor_type;location;lat;lon;timestamp;pressure;altitude;pressure_sealevel;temperature
81319;BMP280;74078;48.420;14.828;2024-03-23T00:55:55;91984.22;;;9.36
81319;BMP280;74078;48.420;14.828;2024-03-23T00:58:20;91982.94;;;9.41
81319;BMP280;74078;48.420;14.828;2024-03-23T01:00:46;91978.06;;;9.28
81319;BMP280;74078;48.420;14.828;2024-03-23T01:03:11;91969.75;;;9.28
81319;BMP280;74078;48.420;14.828;2024-03-23T01:05:36;91970.81;;;9.12
81319;BMP280;74078;48.420;14.828;2024-03-23T01:08:01;91972.78;;;9.08
81319;BMP280;74078;48.420;14.828;2024-03-23T01:10:27;91966.41;;;9.22
81319;BMP280;74078;48.420;14.828;2024-03-23T01:12:52;91967.63;;;9.26
81319;BMP280;74078;48.420;14.828;2024-03-23T01:15:17;91967.34;;;9.33
81319;BMP280;74078;48.420;14.828;2024-03-23T01:17:42;91962.69;;;9.32
81319;BMP280;74078;48.420;14.828;2024-03-23T01:20:08;91967.19;;;9.28
81319;BMP280;74078;48.420;14.828;2024-03-23T01:22:33;91959.22;;;9.20
81319;BMP280;74078;48.420;14.828;2024-03-23T01:24:58;91954.56;;;9.19
81319;BMP280;74078;48.420;14.828;2024-03-23T01:27:24;91955.50;;;9.30
81319;BMP280;74078;48.420;14.828;2024-03-23T01:29:49;91948.47;;;9.25
81319;BMP280;74078;48.420;14.828;2024-03-23T01:32:14;91954.09;;;9.29
81319;BMP280;74078;48.420;14.828;2024-03-23T01:34:39;91947.34;;;9.26
81319;BMP280;74078;48.420;14.828;2024-03-23T01:37:05;91946.75;;;9.31
81319;BMP280;74078;48.420;14.828;2024-03-23T01:39:30;91942.47;;;9.37
81319;BMP280;74078;48.420;14.828;2024-03-23T01:41:55;91947.69;;;9.43
81319;BMP280;74078;48.420;14.828;2024-03-23T01:44:21;91945.25;;;9.48
81319;BMP280;74078;48.420;14.828;2024-03-23T01:46:46;91941.38;;;9.53
81319;BMP280;74078;48.420;14.828;2024-03-23T01:49:12;91945.50;;;9.50
81319;BMP280;74078;48.420;14.828;2024-03-23T01:51:37;91940.50;;;9.41
81319;BMP280;74078;48.420;14.828;2024-03-23T01:54:03;91935.06;;;9.34
81319;BMP280;74078;48.420;14.828;2024-03-23T01:56:32;91933.16;;;9.20
81319;BMP280;74078;48.420;14.828;2024-03-23T01:58:58;91928.94;;;9.17
81319;BMP280;74078;48.420;14.828;2024-03-23T02:01:23;91929.38;;;9.15
81319;BMP280;74078;48.420;14.828;2024-03-23T02:03:49;91926.66;;;9.19
81319;BMP280;74078;48.420;14.828;2024-03-23T02:06:14;91924.63;;;9.08
81319;BMP280;74078;48.420;14.828;2024-03-23T02:08:39;91920.97;;;9.09
81319;BMP280;74078;48.420;14.828;2024-03-23T02:11:04;91917.91;;;9.05
81319;BMP280;74078;48.420;14.828;2024-03-23T02:13:30;91913.34;;;9.09
81319;BMP280;74078;48.420;14.828;2024-03-23T02:15:56;91909.97;;;9.12
81319;BMP280;74078;48.420;14.828;2024-03-23T02:18:22;91908.75;;;9.22
81319;BMP280;74078;48.420;14.828;2024-03-23T02:20:47;91904.22;;;9.26
81319;BMP280;74078;48.420;14.828;2024-03-23T02:23:12;91897.09;;;9.25
81319;BMP280;74078;48.420;14.828;2024-03-23T02:25:38;91893.84;;;9.24
81319;BMP280;74078;48.420;14.828;2024-03-23T02:28:03;91896.19;;;9.28
81319;BMP280;74078;48.420;14.828;2024-03-23T02:30:28;91898.47;;;9.26
81319;BMP280;74078;48.420;14.828;2024-03-23T02:32:53;91889.72;;;9.27
81319;BMP280;74078;48.420;14.828;2024-03-23T02:35:19;91886.59;;;9.32
81319;BMP280;74078;48.420;14.828;2024-03-23T02:37:45;91885.19;;;9.31
81319;BMP280;74078;48.420;14.828;2024-03-23T02:40:11;91886.19;;;9.33
81319;BMP280;74078;48.420;14.828;2024-03-23T02:42:36;91880.72;;;9.26
81319;BMP280;74078;48.420;14.828;2024-03-23T02:45:01;91880.28;;;9.27
81319;BMP280;74078;48.420;14.828;2024-03-23T02:47:29;91883.25;;;9.26
81319;BMP280;74078;48.420;14.828;2024-03-23T02:49:54;91881.41;;;9.26
81319;BMP280;74078;48.420;14.828;2024-03-23T02:52:20;91876.09;;;9.24
81319;BMP280;74078;48.420;14.828;2024-03-23T02:54:45;91872.72;;;9.18
81319;BMP280;74078;48.420;14.828;2024-03-23T02:57:11;91873.59;;;9.15
81319;BMP280;74078;48.420;14.828;2024-03-23T02:59:36;91867.38;;;9.16
81319;BMP280;74078;48.420;14.828;2024-03-23T03:02:02;91866.59;;;9.10
81319;BMP280;74078;48.420;14.828;2024-03-23T03:04:30;91865.19;;;9.09
81319;BMP280;74078;48.420;14.828;2024-03-23T03:07:00;91861.25;;;9.08
81319;BMP280;74078;48.420;14.828;2024-03-23T03:09:26;91859.47;;;8.99
81319;BMP280;74078;48.420;14.828;2024-03-23T03:11:53;91867.94;;;8.96
81319;BMP280;74078;48.420;14.828;2024-03-23T03:14:18;91866.34;;;8.99
81319;BMP280;74078;48.420;14.828;2024-03-23T03:16:45;91865.59;;;8.84
81319;BMP280;74078;48.420;14.828;2024-03-23T03:19:11;91858.50;;;8.73
81319;BMP280;74078;48.420;14.828;2024-03-23T03:21:38;91862.25;;;8.78
81319;BMP280;74078;48.420;14.828;2024-03-23T03:24:05;91856.09;;;8.70
81319;BMP280;74078;48.420;14.828;2024-03-23T03:26:32;91858.06;;;8.75
81319;BMP280;74078;48.420;14.828;2024-03-23T03:28:58;91852.63;;;8.67
81319;BMP280;74078;48.420;14.828;2024-03-23T03:31:25;91860.66;;;8.57
81319;BMP280;74078;48.420;14.828;2024-03-23T03:33:51;91850.28;;;8.55
81319;BMP280;74078;48.420;14.828;2024-03-23T03:36:17;91849.97;;;8.53
81319;BMP280;74078;48.420;14.828;2024-03-23T03:38:44;91851.13;;;8.52
81319;BMP280;74078;48.420;14.828;2024-03-23T03:41:11;91847.50;;;8.43
81319;BMP280;74078;48.420;14.828;2024-03-23T03:43:37;91848.66;;;8.33
81319;BMP280;74078;48.420;14.828;2024-03-23T03:46:04;91840.06;;;8.40
81319;BMP280;74078;48.420;14.828;2024-03-23T03:48:30;91843.00;;;8.48
81319;BMP280;74078;48.420;14.828;2024-03-23T03:50:57;91835.75;;;8.22
81319;BMP280;74078;48.420;14.828;2024-03-23T03:53:23;91825.59;;;8.31
81319;BMP280;74078;48.420;14.828;2024-03-23T03:55:50;91828.00;;;8.35
81319;BMP280;74078;48.420;14.828;2024-03-23T03:58:17;91818.56;;;8.35
81319;BMP280;74078;48.420;14.828;2024-03-23T04:00:43;91820.50;;;8.40
81319;BMP280;74078;48.420;14.828;2024-03-23T04:03:10;91819.91;;;8.13
81319;BMP280;74078;48.420;14.828;2024-03-23T04:05:36;91819.81;;;7.98
81319;BMP280;74078;48.420;14.828;2024-03-23T04:08:03;91824.16;;;7.98
81319;BMP280;74078;48.420;14.828;2024-03-23T04:10:30;91819.88;;;7.71
81319;BMP280;74078;48.420;14.828;2024-03-23T04:12:56;91820.28;;;7.78
81319;BMP280;74078;48.420;14.828;2024-03-23T04:15:23;91820.06;;;8.00
81319;BMP280;74078;48.420;14.828;2024-03-23T04:17:49;91817.69;;;7.97
81319;BMP280;74078;48.420;14.828;2024-03-23T04:20:16;91812.97;;;7.53
81319;BMP280;74078;48.420;14.828;2024-03-23T04:22:45;91812.31;;;7.44
81319;BMP280;74078;48.420;14.828;2024-03-23T04:25:12;91808.09;;;7.41
81319;BMP280;74078;48.420;14.828;2024-03-23T04:27:38;91812.72;;;7.51
81319;BMP280;74078;48.420;14.828;2024-03-23T04:30:05;91804.13;;;7.49
81319;BMP280;74078;48.420;14.828;2024-03-23T04:32:36;91806.09;;;7.54
81319;BMP280;74078;48.420;14.828;2024-03-23T04:35:03;91803.88;;;7.47
81319;BMP280;74078;48.420;14.828;2024-03-23T04:37:35;91796.59;;;7.40
81319;BMP280;74078;48.420;14.828;2024-03-23T04:40:02;91796.56;;;7.12
81319;BMP280;74078;48.420;14.828;2024-03-23T04:42:31;91800.78;;;7.33
81319;BMP280;74078;48.420;14.828;2024-03-23T04:45:00;91800.75;;;7.70
81319;BMP280;74078;48.420;14.828;2024-03-23T04:47:27;91800.50;;;7.59
81319;BMP280;74078;48.420;14.828;2024-03-23T04:49:53;91799.91;;;7.64
81319;BMP280;74078;48.420;14.828;2024-03-23T04:52:20;91796.84;;;7.60
81319;BMP280;74078;48.420;14.828;2024-03-23T04:54:46;91787.19;;;7.40
81319;BMP280;74078;48.420;14.828;2024-03-23T04:57:13;91784.47;;;7.44
81319;BMP280;74078;48.420;14.828;2024-03-23T04:59:39;91786.75;;;7.32
81319;BMP280;74078;48.420;14.828;2024-03-23T05:02:06;91781.50;;;7.54
81319;BMP280;74078;48.420;14.828;2024-03-23T05:04:35;91774.94;;;7.39
81319;BMP280;74078;48.420;14.828;2024-03-23T05:07:03;91776.63;;;7.51
81319;BMP280;74078;48.420;14.828;2024-03-23T05:09:30;91775.34;;;7.55
81319;BMP280;74078;48.420;14.828;2024-03-23T05:12:01;91776.50;;;7.36
81319;BMP280;74078;48.420;14.828;2024-03-23T05:14:28;91765.25;;;7.01
81319;BMP280;74078;48.420;14.828;2024-03-23T05:16:54;91773.09;;;7.30
81319;BMP280;74078;48.420;14.828;2024-03-23T05:19:21;91769.88;;;7.29
81319;BMP280;74078;48.420;14.828;2024-03-23T05:21:48;91760.06;;;7.31
81319;BMP280;74078;48.420;14.828;2024-03-23T05:24:14;91758.66;;;7.12
81319;BMP280;74078;48.420;14.828;2024-03-23T05:26:40;91757.97;;;7.12
81319;BMP280;74078;48.420;14.828;2024-03-23T05:29:07;91750.22;;;7.06
81319;BMP280;74078;48.420;14.828;2024-03-23T05:31:36;91749.53;;;7.06
81319;BMP280;74078;48.420;14.828;2024-03-23T05:34:03;91755.56;;;6.99
81319;BMP280;74078;48.420;14.828;2024-03-23T05:36:29;91749.94;;;6.95
81319;BMP280;74078;48.420;14.828;2024-03-23T05:38:58;91751.50;;;7.11
81319;BMP280;74078;48.420;14.828;2024-03-23T05:41:24;91748.56;;;7.03
81319;BMP280;74078;48.420;14.828;2024-03-23T05:43:51;91755.69;;;7.32
81319;BMP280;74078;48.420;14.828;2024-03-23T05:46:17;91759.63;;;7.42
81319;BMP280;74078;48.420;14.828;2024-03-23T05:48:44;91751.34;;;7.51
81319;BMP280;74078;48.420;14.828;2024-03-23T05:51:10;91747.47;;;7.64
81319;BMP280;74078;48.420;14.828;2024-03-23T05:53:38;91748.13;;;7.92
81319;BMP280;74078;48.420;14.828;2024-03-23T05:56:05;91743.50;;;7.91
81319;BMP280;74078;48.420;14.828;2024-03-23T05:58:32;91738.78;;;8.07
81319;BMP280;74078;48.420;14.828;2024-03-23T06:00:59;91738.75;;;8.16
81319;BMP280;74078;48.420;14.828;2024-03-23T06:03:35;91732.34;;;8.30
81319;BMP280;74078;48.420;14.828;2024-03-23T06:06:02;91736.88;;;8.49
81319;BMP280;74078;48.420;14.828;2024-03-23T06:08:28;91725.66;;;8.41
81319;BMP280;74078;48.420;14.828;2024-03-23T06:10:54;91735.09;;;8.41
81319;BMP280;74078;48.420;14.828;2024-03-23T06:13:21;91727.28;;;8.54
81319;BMP280;74078;48.420;14.828;2024-03-23T06:15:55;91734.22;;;8.68
81319;BMP280;74078;48.420;14.828;2024-03-23T06:18:21;91735.25;;;8.85
81319;BMP280;74078;48.420;14.828;2024-03-23T06:20:48;91733.72;;;9.02
81319;BMP280;74078;48.420;14.828;2024-03-23T06:23:14;91724.94;;;9.03
81319;BMP280;74078;48.420;14.828;2024-03-23T06:25:42;91723.94;;;9.10
81319;BMP280;74078;48.420;14.828;2024-03-23T06:28:10;91718.06;;;9.18
81319;BMP280;74078;48.420;14.828;2024-03-23T06:30:39;91722.88;;;9.16
81319;BMP280;74078;48.420;14.828;2024-03-23T06:33:06;91729.69;;;9.10
81319;BMP280;74078;48.420;14.828;2024-03-23T06:35:32;91715.03;;;9.29
81319;BMP280;74078;48.420;14.828;2024-03-23T06:37:59;91724.03;;;9.44
81319;BMP280;74078;48.420;14.828;2024-03-23T06:40:25;91727.09;;;9.48
81319;BMP280;74078;48.420;14.828;2024-03-23T06:42:51;91712.13;;;9.50
81319;BMP280;74078;48.420;14.828;2024-03-23T06:45:18;91708.84;;;9.64
81319;BMP280;74078;48.420;14.828;2024-03-23T06:47:49;91706.38;;;9.85
81319;BMP280;74078;48.420;14.828;2024-03-23T06:50:17;91714.50;;;10.44
81319;BMP280;74078;48.420;14.828;2024-03-23T06:52:43;91708.72;;;10.89
81319;BMP280;74078;48.420;14.828;2024-03-23T06:55:09;91701.75;;;11.10
81319;BMP280;74078;48.420;14.828;2024-03-23T06:57:36;91702.78;;;11.23
81319;BMP280;74078;48.420;14.828;2024-03-23T07:00:02;91701.94;;;11.32
81319;BMP280;74078;48.420;14.828;2024-03-23T07:02:29;91705.34;;;11.23
81319;BMP280;74078;48.420;14.828;2024-03-23T07:04:55;91702.09;;;11.23
81319;BMP280;74078;48.420;14.828;2024-03-23T07:07:22;91696.50;;;11.50
81319;BMP280;74078;48.420;14.828;2024-03-23T07:09:51;91694.66;;;11.45
81319;BMP280;74078;48.420;14.828;2024-03-23T07:12:18;91689.31;;;11.48
81319;BMP280;74078;48.420;14.828;2024-03-23T07:14:45;91695.34;;;11.82
81319;BMP280;74078;48.420;14.828;2024-03-23T07:17:14;91686.44;;;12.09
81319;BMP280;74078;48.420;14.828;2024-03-23T07:19:41;91693.41;;;12.19
81319;BMP280;74078;48.420;14.828;2024-03-23T07:22:08;91680.25;;;12.32
81319;BMP280;74078;48.420;14.828;2024-03-23T07:24:39;91680.63;;;12.08
81319;BMP280;74078;48.420;14.828;2024-03-23T07:27:05;91679.00;;;12.11
81319;BMP280;74078;48.420;14.828;2024-03-23T07:29:35;91661.44;;;12.18
81319;BMP280;74078;48.420;14.828;2024-03-23T07:32:02;91664.25;;;11.67
81319;BMP280;74078;48.420;14.828;2024-03-23T07:34:28;91663.91;;;11.96
81319;BMP280;74078;48.420;14.828;2024-03-23T07:36:55;91655.06;;;12.51
81319;BMP280;74078;48.420;14.828;2024-03-23T07:39:24;91653.22;;;12.62
81319;BMP280;74078;48.420;14.828;2024-03-23T07:41:53;91654.34;;;12.45
81319;BMP280;74078;48.420;14.828;2024-03-23T07:44:20;91643.78;;;11.98
81319;BMP280;74078;48.420;14.828;2024-03-23T07:46:46;91646.50;;;12.59
81319;BMP280;74078;48.420;14.828;2024-03-23T07:49:13;91652.69;;;12.42
81319;BMP280;74078;48.420;14.828;2024-03-23T07:51:39;91653.22;;;12.57
81319;BMP280;74078;48.420;14.828;2024-03-23T07:54:06;91652.78;;;12.80
81319;BMP280;74078;48.420;14.828;2024-03-23T07:56:33;91652.53;;;12.84
81319;BMP280;74078;48.420;14.828;2024-03-23T07:59:02;91636.56;;;12.83
81319;BMP280;74078;48.420;14.828;2024-03-23T08:01:29;91647.00;;;13.02
81319;BMP280;74078;48.420;14.828;2024-03-23T08:03:55;91643.72;;;13.29
81319;BMP280;74078;48.420;14.828;2024-03-23T08:06:25;91637.00;;;13.15
81319;BMP280;74078;48.420;14.828;2024-03-23T08:08:52;91640.03;;;13.08
81319;BMP280;74078;48.420;14.828;2024-03-23T08:11:31;91635.38;;;13.29
81319;BMP280;74078;48.420;14.828;2024-03-23T08:14:00;91624.91;;;13.49
81319;BMP280;74078;48.420;14.828;2024-03-23T08:16:30;91610.41;;;13.79
81319;BMP280;74078;48.420;14.828;2024-03-23T08:18:56;91615.72;;;14.33
81319;BMP280;74078;48.420;14.828;2024-03-23T08:21:22;91599.25;;;13.88
81319;BMP280;74078;48.420;14.828;2024-03-23T08:23:50;91605.81;;;13.61
81319;BMP280;74078;48.420;14.828;2024-03-23T08:26:17;91597.53;;;14.07
81319;BMP280;74078;48.420;14.828;2024-03-23T08:28:43;91581.97;;;14.05
81319;BMP280;74078;48.420;14.828;2024-03-23T08:31:11;91585.50;;;13.91
81319;BMP280;74078;48.420;14.828;2024-03-23T08:33:38;91594.66;;;13.75
81319;BMP280;74078;48.420;14.828;2024-03-23T08:36:08;91574.34;;;13.94
81319;BMP280;74078;48.420;14.828;2024-03-23T08:38:35;91572.56;;;13.78
81319;BMP280;74078;48.420;14.828;2024-03-23T08:41:07;91569.00;;;13.92
81319;BMP280;74078;48.420;14.828;2024-03-23T08:43:40;91574.75;;;14.44
81319;BMP280;74078;48.420;14.828;2024-03-23T08:46:08;91558.75;;;14.92
81319;BMP280;74078;48.420;14.828;2024-03-23T08:48:35;91564.41;;;14.61
81319;BMP280;74078;48.420;14.828;2024-03-23T08:51:02;91553.91;;;14.64
81319;BMP280;74078;48.420;14.828;2024-03-23T08:53:29;91546.22;;;14.35
81319;BMP280;74078;48.420;14.828;2024-03-23T08:55:56;91543.25;;;14.60
81319;BMP280;74078;48.420;14.828;2024-03-23T08:58:23;91520.53;;;15.00
81319;BMP280;74078;48.420;14.828;2024-03-23T09:00:50;91527.06;;;15.01
81319;BMP280;74078;48.420;14.828;2024-03-23T09:03:17;91510.84;;;15.17
81319;BMP280;74078;48.420;14.828;2024-03-23T09:05:44;91520.09;;;15.20
81319;BMP280;74078;48.420;14.828;2024-03-23T09:08:10;91515.69;;;15.39
81319;BMP280;74078;48.420;14.828;2024-03-23T09:10:40;91500.13;;;15.37
81319;BMP280;74078;48.420;14.828;2024-03-23T09:13:07;91507.13;;;15.36
81319;BMP280;74078;48.420;14.828;2024-03-23T09:15:37;91507.72;;;15.42
81319;BMP280;74078;48.420;14.828;2024-03-23T09:18:04;91508.00;;;15.57
81319;BMP280;74078;48.420;14.828;2024-03-23T09:20:33;91496.34;;;15.19
81319;BMP280;74078;48.420;14.828;2024-03-23T09:22:59;91491.94;;;15.20
81319;BMP280;74078;48.420;14.828;2024-03-23T09:25:26;91500.28;;;15.02
81319;BMP280;74078;48.420;14.828;2024-03-23T09:27:52;91486.91;;;15.33
81319;BMP280;74078;48.420;14.828;2024-03-23T09:30:18;91484.91;;;15.26
81319;BMP280;74078;48.420;14.828;2024-03-23T09:32:45;91485.81;;;15.97
81319;BMP280;74078;48.420;14.828;2024-03-23T09:35:11;91485.28;;;16.17
81319;BMP280;74078;48.420;14.828;2024-03-23T09:37:40;91482.75;;;15.67
81319;BMP280;74078;48.420;14.828;2024-03-23T09:40:13;91480.88;;;16.31
81319;BMP280;74078;48.420;14.828;2024-03-23T09:42:39;91479.66;;;15.55
81319;BMP280;74078;48.420;14.828;2024-03-23T09:45:16;91477.34;;;15.52
81319;BMP280;74078;48.420;14.828;2024-03-23T09:47:43;91483.06;;;15.45
81319;BMP280;74078;48.420;14.828;2024-03-23T09:50:12;91486.31;;;15.03
81319;BMP280;74078;48.420;14.828;2024-03-23T09:52:39;91476.72;;;15.83
81319;BMP280;74078;48.420;14.828;2024-03-23T09:55:06;91470.59;;;16.18
81319;BMP280;74078;48.420;14.828;2024-03-23T09:57:34;91473.47;;;15.83
81319;BMP280;74078;48.420;14.828;2024-03-23T10:00:03;91483.25;;;15.28
81319;BMP280;74078;48.420;14.828;2024-03-23T10:02:29;91475.69;;;14.74
81319;BMP280;74078;48.420;14.828;2024-03-23T10:04:56;91468.78;;;14.88
81319;BMP280;74078;48.420;14.828;2024-03-23T10:07:23;91486.22;;;14.65
81319;BMP280;74078;48.420;14.828;2024-03-23T10:09:50;91475.50;;;14.72
81319;BMP280;74078;48.420;14.828;2024-03-23T10:12:17;91485.28;;;14.68
81319;BMP280;74078;48.420;14.828;2024-03-23T10:14:44;91481.41;;;14.32
81319;BMP280;74078;48.420;14.828;2024-03-23T10:17:12;91492.69;;;14.18
81319;BMP280;74078;48.420;14.828;2024-03-23T10:19:45;91478.31;;;14.09
81319;BMP280;74078;48.420;14.828;2024-03-23T10:22:13;91495.50;;;13.74
81319;BMP280;74078;48.420;14.828;2024-03-23T10:24:41;91498.03;;;13.79
81319;BMP280;74078;48.420;14.828;2024-03-23T10:27:08;91522.94;;;13.62
81319;BMP280;74078;48.420;14.828;2024-03-23T10:29:35;91478.94;;;13.86
81319;BMP280;74078;48.420;14.828;2024-03-23T10:32:11;91496.84;;;13.80
81319;BMP280;74078;48.420;14.828;2024-03-23T10:34:37;91504.91;;;13.95
81319;BMP280;74078;48.420;14.828;2024-03-23T10:37:05;91505.91;;;14.16
81319;BMP280;74078;48.420;14.828;2024-03-23T10:39:32;91499.31;;;13.97
81319;BMP280;74078;48.420;14.828;2024-03-23T10:42:03;91474.41;;;13.68
81319;BMP280;74078;48.420;14.828;2024-03-23T10:44:30;91493.94;;;13.60
81319;BMP280;74078;48.420;14.828;2024-03-23T10:47:06;91476.84;;;13.43
81319;BMP280;74078;48.420;14.828;2024-03-23T10:49:32;91503.91;;;12.95
81319;BMP280;74078;48.420;14.828;2024-03-23T10:51:59;91485.41;;;12.83
81319;BMP280;74078;48.420;14.828;2024-03-23T10:54:26;91500.94;;;12.74
81319;BMP280;74078;48.420;14.828;2024-03-23T10:59:25;91533.78;;;11.94
81319;BMP280;74078;48.420;14.828;2024-03-23T11:01:55;91530.03;;;11.68
81319;BMP280;74078;48.420;14.828;2024-03-23T11:04:35;91569.03;;;11.06
81319;BMP280;74078;48.420;14.828;2024-03-23T11:07:02;91558.59;;;10.72
81319;BMP280;74078;48.420;14.828;2024-03-23T11:12:17;91580.97;;;10.37
81319;BMP280;74078;48.420;14.828;2024-03-23T11:14:44;91575.19;;;10.37
81319;BMP280;74078;48.420;14.828;2024-03-23T11:17:11;91597.63;;;10.18
81319;BMP280;74078;48.420;14.828;2024-03-23T11:19:37;91603.13;;;10.16
81319;BMP280;74078;48.420;14.828;2024-03-23T11:22:04;91598.28;;;10.13
81319;BMP280;74078;48.420;14.828;2024-03-23T11:24:33;91591.81;;;10.38
81319;BMP280;74078;48.420;14.828;2024-03-23T11:27:00;91601.81;;;10.01
81319;BMP280;74078;48.420;14.828;2024-03-23T11:29:30;91601.88;;;10.06
81319;BMP280;74078;48.420;14.828;2024-03-23T11:31:56;91606.00;;;10.04
81319;BMP280;74078;48.420;14.828;2024-03-23T11:34:24;91592.72;;;10.14
81319;BMP280;74078;48.420;14.828;2024-03-23T11:36:51;91580.72;;;10.15
81319;BMP280;74078;48.420;14.828;2024-03-23T11:39:28;91571.69;;;10.34
81319;BMP280;74078;48.420;14.828;2024-03-23T11:41:55;91589.69;;;9.35
81319;BMP280;74078;48.420;14.828;2024-03-23T11:44:23;91585.41;;;9.41
81319;BMP280;74078;48.420;14.828;2024-03-23T11:46:51;91590.38;;;9.36
81319;BMP280;74078;48.420;14.828;2024-03-23T11:51:50;91598.41;;;9.34
81319;BMP280;74078;48.420;14.828;2024-03-23T11:54:20;91591.38;;;9.24
81319;BMP280;74078;48.420;14.828;2024-03-23T11:59:43;91590.28;;;8.95
81319;BMP280;74078;48.420;14.828;2024-03-23T12:02:10;91580.66;;;8.99
81319;BMP280;74078;48.420;14.828;2024-03-23T12:04:37;91582.72;;;9.16
81319;BMP280;74078;48.420;14.828;2024-03-23T12:07:15;91589.66;;;9.15
81319;BMP280;74078;48.420;14.828;2024-03-23T12:09:45;91582.66;;;9.10
81319;BMP280;74078;48.420;14.828;2024-03-23T12:12:15;91582.50;;;8.84
81319;BMP280;74078;48.420;14.828;2024-03-23T12:14:42;91581.03;;;8.63
81319;BMP280;74078;48.420;14.828;2024-03-23T12:17:13;91587.38;;;8.59
81319;BMP280;74078;48.420;14.828;2024-03-23T12:19:40;91598.59;;;8.67
81319;BMP280;74078;48.420;14.828;2024-03-23T12:22:09;91616.91;;;8.47
81319;BMP280;74078;48.420;14.828;2024-03-23T12:24:36;91601.94;;;8.34
81319;BMP280;74078;48.420;14.828;2024-03-23T12:27:04;91605.13;;;8.20
81319;BMP280;74078;48.420;14.828;2024-03-23T12:29:31;91610.63;;;7.95
81319;BMP280;74078;48.420;14.828;2024-03-23T12:32:01;91625.63;;;7.99
81319;BMP280;74078;48.420;14.828;2024-03-23T12:34:28;91644.16;;;7.81
81319;BMP280;74078;48.420;14.828;2024-03-23T12:36:56;91630.72;;;7.66
81319;BMP280;74078;48.420;14.828;2024-03-23T12:39:22;91623.19;;;7.57
81319;BMP280;74078;48.420;14.828;2024-03-23T12:41:51;91631.84;;;7.74
81319;BMP280;74078;48.420;14.828;2024-03-23T12:44:20;91626.75;;;7.83
81319;BMP280;74078;48.420;14.828;2024-03-23T12:46:47;91622.09;;;7.81
81319;BMP280;74078;48.420;14.828;2024-03-23T12:49:13;91620.78;;;7.86
81319;BMP280;74078;48.420;14.828;2024-03-23T12:51:42;91634.16;;;7.86
81319;BMP280;74078;48.420;14.828;2024-03-23T12:54:12;91634.59;;;7.76
81319;BMP280;74078;48.420;14.828;2024-03-23T12:56:38;91643.72;;;7.50
81319;BMP280;74078;48.420;14.828;2024-03-23T12:59:05;91650.09;;;7.36
81319;BMP280;74078;48.420;14.828;2024-03-23T13:01:31;91653.63;;;7.20
81319;BMP280;74078;48.420;14.828;2024-03-23T13:03:58;91663.22;;;7.16
81319;BMP280;74078;48.420;14.828;2024-03-23T13:06:26;91660.38;;;7.14
81319;BMP280;74078;48.420;14.828;2024-03-23T13:08:57;91678.22;;;7.11
81319;BMP280;74078;48.420;14.828;2024-03-23T13:11:24;91686.75;;;7.22
81319;BMP280;74078;48.420;14.828;2024-03-23T13:13:51;91693.28;;;6.78
81319;BMP280;74078;48.420;14.828;2024-03-23T13:16:18;91709.81;;;6.70
81319;BMP280;74078;48.420;14.828;2024-03-23T13:18:45;91699.28;;;6.81
81319;BMP280;74078;48.420;14.828;2024-03-23T13:21:11;91695.38;;;6.89
81319;BMP280;74078;48.420;14.828;2024-03-23T13:23:37;91683.72;;;6.73
81319;BMP280;74078;48.420;14.828;2024-03-23T13:26:07;91703.59;;;6.44
81319;BMP280;74078;48.420;14.828;2024-03-23T13:28:34;91700.94;;;6.38
81319;BMP280;74078;48.420;14.828;2024-03-23T13:31:01;91707.56;;;6.54
81319;BMP280;74078;48.420;14.828;2024-03-23T13:33:30;91688.72;;;6.37
81319;BMP280;74078;48.420;14.828;2024-03-23T13:36:00;91688.31;;;6.38
81319;BMP280;74078;48.420;14.828;2024-03-23T13:38:27;91690.97;;;6.44
81319;BMP280;74078;48.420;14.828;2024-03-23T13:40:54;91717.00;;;6.13
81319;BMP280;74078;48.420;14.828;2024-03-23T13:43:25;91695.09;;;6.01
81319;BMP280;74078;48.420;14.828;2024-03-23T13:45:56;91695.38;;;6.03
81319;BMP280;74078;48.420;14.828;2024-03-23T13:48:23;91719.75;;;5.97
81319;BMP280;74078;48.420;14.828;2024-03-23T13:50:58;91705.13;;;5.92
81319;BMP280;74078;48.420;14.828;2024-03-23T13:53:23;91712.97;;;5.85
81319;BMP280;74078;48.420;14.828;2024-03-23T13:55:49;91731.56;;;5.79
81319;BMP280;74078;48.420;14.828;2024-03-23T13:58:14;91728.53;;;5.40
81319;BMP280;74078;48.420;14.828;2024-03-23T14:00:40;91741.75;;;5.23
81319;BMP280;74078;48.420;14.828;2024-03-23T14:03:05;91746.22;;;5.06
81319;BMP280;74078;48.420;14.828;2024-03-23T14:05:30;91755.50;;;4.62
81319;BMP280;74078;48.420;14.828;2024-03-23T14:07:56;91760.16;;;4.51
81319;BMP280;74078;48.420;14.828;2024-03-23T14:10:21;91753.38;;;4.48
81319;BMP280;74078;48.420;14.828;2024-03-23T14:12:46;91748.44;;;4.44
81319;BMP280;74078;48.420;14.828;2024-03-23T14:15:11;91741.59;;;4.45
81319;BMP280;74078;48.420;14.828;2024-03-23T14:17:36;91740.06;;;4.60
81319;BMP280;74078;48.420;14.828;2024-03-23T14:20:02;91715.41;;;4.68
81319;BMP280;74078;48.420;14.828;2024-03-23T14:22:30;91711.88;;;4.65
81319;BMP280;74078;48.420;14.828;2024-03-23T14:24:55;91698.09;;;4.91
81319;BMP280;74078;48.420;14.828;2024-03-23T14:27:21;91697.88;;;4.98
81319;BMP280;74078;48.420;14.828;2024-03-23T14:29:46;91706.91;;;5.08
81319;BMP280;74078;48.420;14.828;2024-03-23T14:32:12;91712.41;;;4.94
81319;BMP280;74078;48.420;14.828;2024-03-23T14:34:37;91719.69;;;5.14
81319;BMP280;74078;48.420;14.828;2024-03-23T14:37:02;91713.16;;;5.17
81319;BMP280;74078;48.420;14.828;2024-03-23T14:39:28;91706.47;;;5.23
81319;BMP280;74078;48.420;14.828;2024-03-23T14:41:54;91705.88;;;4.97
81319;BMP280;74078;48.420;14.828;2024-03-23T14:44:19;91700.13;;;5.18
81319;BMP280;74078;48.420;14.828;2024-03-23T14:46:44;91712.59;;;5.00
81319;BMP280;74078;48.420;14.828;2024-03-23T14:49:14;91712.22;;;5.01
81319;BMP280;74078;48.420;14.828;2024-03-23T14:51:41;91708.91;;;5.14
81319;BMP280;74078;48.420;14.828;2024-03-23T14:54:06;91718.84;;;4.95
81319;BMP280;74078;48.420;14.828;2024-03-23T14:56:32;91726.81;;;4.94
81319;BMP280;74078;48.420;14.828;2024-03-23T14:58:57;91728.66;;;4.81
81319;BMP280;74078;48.420;14.828;2024-03-23T15:01:22;91741.44;;;4.86
81319;BMP280;74078;48.420;14.828;2024-03-23T15:03:47;91735.16;;;4.91
81319;BMP280;74078;48.420;14.828;2024-03-23T15:06:12;91745.94;;;4.91
81319;BMP280;74078;48.420;14.828;2024-03-23T15:08:38;91733.97;;;4.95